createdAt,value
2018-08-11T00:02:25.457Z,1.70
2018-08-11T00:04:55.737Z,1.50
2018-08-11T00:07:26.143Z,1.70
2018-08-11T00:09:56.772Z,1.63
2018-08-11T00:12:27.226Z,1.70
2018-08-11T00:14:57.720Z,1.63
2018-08-11T00:17:28.241Z,1.57
2018-08-11T00:19:58.585Z,1.70
2018-08-11T00:22:29.085Z,1.50
2018-08-11T00:24:59.771Z,1.63
2018-08-11T00:27:32.034Z,1.67
2018-08-11T00:30:03.128Z,1.80
2018-08-11T00:32:33.486Z,2.00
2018-08-11T00:35:04.393Z,1.67
2018-08-11T00:37:34.868Z,1.87
2018-08-11T00:40:07.167Z,2.00
2018-08-11T00:42:37.539Z,1.90
2018-08-11T00:45:09.520Z,2.00
2018-08-11T00:47:40.012Z,1.97
2018-08-11T00:50:18.961Z,1.93
2018-08-11T00:52:50.015Z,2.10
2018-08-11T00:55:20.526Z,2.00
2018-08-11T00:57:50.790Z,2.37
2018-08-11T01:00:21.586Z,2.20
2018-08-11T01:02:52.065Z,2.60
2018-08-11T01:05:22.684Z,2.40
2018-08-11T01:07:53.379Z,2.43
2018-08-11T01:10:23.903Z,2.70
2018-08-11T01:12:54.548Z,2.50
2018-08-11T01:15:25.559Z,2.40
2018-08-11T01:17:55.968Z,2.50
2018-08-11T01:20:26.611Z,2.77
2018-08-11T01:22:57.169Z,2.50
2018-08-11T01:25:27.668Z,2.40
2018-08-11T01:27:58.188Z,2.90
2018-08-11T01:30:28.545Z,2.80
2018-08-11T01:32:58.748Z,2.80
2018-08-11T01:35:29.130Z,2.80
2018-08-11T01:37:59.678Z,2.67
2018-08-11T01:40:30.049Z,2.77
2018-08-11T01:43:00.450Z,2.90
2018-08-11T01:45:31.242Z,3.07
2018-08-11T01:48:01.918Z,2.90
2018-08-11T01:50:32.344Z,3.17
2018-08-11T01:53:02.592Z,3.27
2018-08-11T01:55:33.346Z,3.07
2018-08-11T01:58:03.805Z,3.37
2018-08-11T02:00:34.132Z,3.10
2018-08-11T02:03:04.421Z,3.77
2018-08-11T02:05:34.731Z,3.30
2018-08-11T02:08:05.156Z,3.70
2018-08-11T02:10:35.576Z,3.40
2018-08-11T02:13:06.480Z,3.60
2018-08-11T02:15:37.029Z,4.00
2018-08-11T02:18:07.670Z,3.47
2018-08-11T02:20:38.094Z,3.77
2018-08-11T02:23:08.312Z,3.40
2018-08-11T02:25:38.701Z,3.60
2018-08-11T02:28:09.263Z,4.30
2018-08-11T02:30:39.633Z,4.33
2018-08-11T02:33:09.953Z,4.20
2018-08-11T02:35:40.446Z,4.10
2018-08-11T02:38:10.808Z,4.63
2018-08-11T02:40:41.656Z,5.10
2018-08-11T02:43:12.076Z,4.40
2018-08-11T02:45:42.473Z,4.83
2018-08-11T02:48:12.989Z,4.90
2018-08-11T02:50:43.285Z,5.10
2018-08-11T02:53:13.943Z,4.97
2018-08-11T02:55:44.440Z,4.70
2018-08-11T02:58:15.039Z,4.97
2018-08-11T03:00:45.540Z,4.90
2018-08-11T03:03:16.411Z,4.80
2018-08-11T03:05:47.015Z,5.17
2018-08-11T03:08:17.664Z,4.90
2018-08-11T03:10:48.080Z,5.00
2018-08-11T03:13:18.811Z,5.33
2018-08-11T03:15:49.300Z,5.13
2018-08-11T03:18:19.718Z,5.20
2018-08-11T03:20:50.441Z,5.70
2018-08-11T03:23:20.929Z,5.67
2018-08-11T03:25:51.188Z,5.70
2018-08-11T03:28:22.089Z,5.27
2018-08-11T03:30:52.557Z,5.53
2018-08-11T03:33:23.053Z,5.20
2018-08-11T03:35:53.781Z,5.23
2018-08-11T03:38:24.376Z,5.47
2018-08-11T03:40:54.704Z,5.30
2018-08-11T03:43:25.089Z,5.70
2018-08-11T03:45:55.486Z,5.53
2018-08-11T03:48:25.911Z,5.87
2018-08-11T03:50:56.306Z,5.83
2018-08-11T03:53:26.982Z,5.77
2018-08-11T03:55:57.585Z,5.77
2018-08-11T03:58:28.087Z,5.77
2018-08-11T04:00:58.420Z,5.60
2018-08-11T04:03:28.752Z,5.67
2018-08-11T04:05:59.282Z,5.77
2018-08-11T04:08:29.674Z,6.13
2018-08-11T04:11:00.073Z,5.87
2018-08-11T04:13:30.397Z,5.83
2018-08-11T04:16:01.124Z,6.00
2018-08-11T04:18:32.769Z,6.40
2018-08-11T04:21:03.464Z,5.70
2018-08-11T04:23:34.314Z,6.00
2018-08-11T04:26:04.884Z,5.30
2018-08-11T04:28:35.448Z,5.57
2018-08-11T04:31:05.854Z,5.30
2018-08-11T04:33:36.471Z,5.60
2018-08-11T04:36:06.953Z,5.67
2018-08-11T04:38:37.340Z,5.00
2018-08-11T04:41:08.007Z,5.73
2018-08-11T04:43:38.494Z,5.33
2018-08-11T04:46:08.970Z,5.07
2018-08-11T04:48:39.266Z,5.60
2018-08-11T04:51:10.693Z,5.60
2018-08-11T04:53:41.109Z,5.50
2018-08-11T04:56:11.363Z,5.37
2018-08-11T04:58:41.729Z,5.17
2018-08-11T05:01:12.100Z,5.63
2018-08-11T05:03:42.984Z,4.97
2018-08-11T05:06:13.483Z,5.10
2018-08-11T05:08:43.885Z,5.70
2018-08-11T05:11:14.222Z,5.70
2018-08-11T05:13:44.696Z,5.33
2018-08-11T05:16:15.002Z,4.90
2018-08-11T05:18:45.899Z,5.83
2018-08-11T05:21:17.771Z,5.40
2018-08-11T05:23:48.726Z,5.80
2018-08-11T05:26:19.188Z,5.43
2018-08-11T05:28:49.939Z,6.30
2018-08-11T05:31:20.489Z,5.63
2018-08-11T05:33:51.097Z,5.40
2018-08-11T05:36:21.890Z,5.83
2018-08-11T05:38:52.240Z,5.90
2018-08-11T05:41:22.635Z,6.13
2018-08-11T05:43:53.650Z,5.63
2018-08-11T05:46:24.298Z,5.93
2018-08-11T05:48:54.491Z,5.40
2018-08-11T05:51:25.103Z,5.00
2018-08-11T05:53:55.688Z,5.03
2018-08-11T05:56:26.290Z,4.87
2018-08-11T05:58:56.729Z,4.67
2018-08-11T06:01:27.147Z,5.03
2018-08-11T06:03:57.586Z,4.97
2018-08-11T06:06:28.082Z,4.50
2018-08-11T06:08:58.428Z,4.60
2018-08-11T06:11:28.992Z,4.77
2018-08-11T06:13:59.747Z,4.23
2018-08-11T06:16:30.266Z,4.10
2018-08-11T06:19:00.797Z,4.33
2018-08-11T06:21:31.102Z,4.30
2018-08-11T06:24:01.845Z,4.07
2018-08-11T06:26:32.212Z,3.70
2018-08-11T06:29:03.750Z,3.80
2018-08-11T06:31:34.541Z,4.53
2018-08-11T06:34:04.904Z,3.63
2018-08-11T06:36:35.322Z,3.77
2018-08-11T06:39:08.319Z,3.23
2018-08-11T06:41:39.436Z,2.37
2018-08-11T06:44:10.029Z,2.50
2018-08-11T06:46:40.529Z,2.50
2018-08-11T06:49:11.619Z,2.57
2018-08-11T06:51:42.214Z,2.50
2018-08-11T06:54:12.935Z,2.63
2018-08-11T06:56:43.352Z,2.40
2018-08-11T06:59:13.658Z,2.20
2018-08-11T07:01:44.457Z,2.20
2018-08-11T07:04:14.955Z,2.03
2018-08-11T07:06:45.438Z,2.07
2018-08-11T07:09:16.413Z,1.50
2018-08-11T07:11:47.067Z,1.30
2018-08-11T07:14:17.412Z,1.10
2018-08-11T07:16:47.858Z,1.50
2018-08-11T07:19:19.050Z,1.30
2018-08-11T07:21:49.503Z,1.20
2018-08-11T07:24:20.406Z,1.20
2018-08-11T07:26:50.997Z,1.17
2018-08-11T07:29:21.434Z,1.10
2018-08-11T07:31:51.892Z,1.00
2018-08-11T07:34:22.479Z,1.00
2018-08-11T07:36:53.054Z,1.30
2018-08-11T07:39:23.599Z,0.93
2018-08-11T07:41:54.370Z,1.10
2018-08-11T07:44:24.574Z,1.00
2018-08-11T07:46:54.998Z,1.27
2018-08-11T07:49:25.606Z,1.00
2018-08-11T07:51:56.218Z,1.10
2018-08-11T07:54:26.545Z,1.00
2018-08-11T07:56:57.272Z,1.00
2018-08-11T07:59:27.646Z,1.13
2018-08-11T08:01:57.929Z,1.13
2018-08-11T08:04:28.259Z,1.10
2018-08-11T08:06:58.711Z,0.90
2018-08-11T08:09:29.463Z,1.10
2018-08-11T08:11:59.878Z,1.10
2018-08-11T08:14:30.125Z,1.10
2018-08-11T08:17:00.477Z,1.10
2018-08-11T08:19:30.798Z,1.10
2018-08-11T08:22:01.025Z,1.10
2018-08-11T08:24:31.497Z,1.00
2018-08-11T08:27:01.964Z,1.07
2018-08-11T08:29:32.235Z,1.00
2018-08-11T08:32:02.525Z,1.10
2018-08-11T08:34:32.814Z,1.23
2018-08-11T08:37:03.184Z,1.20
2018-08-11T08:39:33.689Z,1.20
2018-08-11T08:42:04.189Z,1.40
2018-08-11T08:44:34.931Z,1.30
2018-08-11T08:47:05.315Z,1.27
2018-08-11T08:49:35.727Z,1.20
2018-08-11T08:52:06.527Z,1.30
2018-08-11T08:54:36.838Z,1.00
2018-08-11T08:57:07.296Z,1.10
2018-08-11T08:59:37.517Z,1.30
2018-08-11T09:02:07.941Z,1.30
2018-08-11T09:04:38.190Z,1.40
2018-08-11T09:07:08.463Z,1.17
2018-08-11T09:09:38.859Z,1.40
2018-08-11T09:12:09.430Z,1.20
2018-08-11T09:14:39.958Z,1.27
2018-08-11T09:17:10.483Z,1.37
2018-08-11T09:19:41.063Z,1.00
2018-08-11T09:22:11.729Z,1.10
2018-08-11T09:24:42.423Z,1.10
2018-08-11T09:27:12.771Z,1.10
2018-08-11T09:29:43.391Z,1.00
2018-08-11T09:32:13.739Z,1.00
2018-08-11T09:34:44.119Z,1.10
2018-08-11T09:37:14.505Z,1.20
2018-08-11T09:39:46.369Z,1.00
2018-08-11T09:42:17.053Z,1.10
2018-08-11T09:44:47.709Z,1.00
2018-08-11T09:47:18.375Z,1.23
2018-08-11T09:49:49.022Z,1.20
2018-08-11T09:52:19.408Z,1.10
2018-08-11T09:54:49.629Z,1.00
2018-08-11T09:57:20.028Z,1.13
2018-08-11T09:59:50.548Z,1.13
2018-08-11T10:02:22.690Z,1.10
2018-08-11T10:04:53.030Z,1.13
2018-08-11T10:07:23.540Z,1.37
2018-08-11T10:09:54.109Z,1.17
2018-08-11T10:12:24.804Z,1.23
2018-08-11T10:14:55.442Z,1.10
2018-08-11T10:17:25.960Z,1.30
2018-08-11T10:19:56.400Z,1.33
2018-08-11T10:22:26.908Z,1.20
2018-08-11T10:24:57.480Z,1.27
2018-08-11T10:27:27.950Z,1.40
2018-08-11T10:29:58.445Z,1.50
2018-08-11T10:32:29.148Z,1.30
2018-08-11T10:35:00.031Z,1.30
2018-08-11T10:37:30.569Z,1.40
2018-08-11T10:40:01.075Z,1.40
2018-08-11T10:42:31.538Z,1.30
2018-08-11T10:45:01.883Z,1.30
2018-08-11T10:47:32.732Z,1.30
2018-08-11T10:50:03.006Z,1.27
2018-08-11T10:52:33.983Z,1.20
2018-08-11T10:55:04.584Z,1.30
2018-08-11T10:57:35.249Z,1.10
2018-08-11T11:00:05.581Z,1.33
2018-08-11T11:02:36.144Z,1.20
2018-08-11T11:05:06.512Z,1.12
2018-08-11T11:07:37.228Z,1.30
2018-08-11T11:10:08.295Z,1.22
2018-08-11T11:12:38.797Z,1.37
2018-08-11T11:15:09.616Z,1.10
2018-08-11T11:17:40.724Z,1.20
2018-08-11T11:20:12.328Z,1.32
2018-08-11T11:22:43.054Z,1.45
2018-08-11T11:25:13.609Z,1.05
2018-08-11T11:27:43.872Z,1.02
2018-08-11T11:30:14.346Z,1.15
2018-08-11T11:32:44.894Z,1.30
2018-08-11T11:35:15.661Z,1.15
2018-08-11T11:37:46.371Z,1.40
2018-08-11T11:40:16.942Z,1.20
2018-08-11T11:42:47.457Z,1.30
2018-08-11T11:45:18.154Z,1.20
2018-08-11T11:47:48.838Z,1.40
2018-08-11T11:50:19.343Z,1.37
2018-08-11T11:52:49.845Z,1.35
2018-08-11T11:55:20.223Z,1.40
2018-08-11T11:57:50.733Z,1.22
2018-08-11T12:00:21.382Z,1.35
2018-08-11T12:02:51.826Z,1.47
2018-08-11T12:05:22.300Z,1.35
2018-08-11T12:07:52.845Z,1.40
2018-08-11T12:10:23.222Z,1.40
2018-08-11T12:12:53.867Z,1.30
2018-08-11T12:15:24.309Z,1.20
2018-08-11T12:17:54.690Z,1.15
2018-08-11T12:20:25.266Z,1.30
2018-08-11T12:22:55.887Z,1.00
2018-08-11T12:25:26.603Z,1.35
2018-08-11T12:27:57.289Z,1.20
2018-08-11T12:30:27.771Z,1.10
2018-08-11T12:32:58.608Z,1.20
2018-08-11T12:35:28.884Z,1.42
2018-08-11T12:37:59.332Z,1.15
2018-08-11T12:40:29.818Z,1.12
2018-08-11T12:43:00.783Z,1.10
2018-08-11T12:45:31.379Z,1.40
2018-08-11T12:48:01.944Z,0.95
2018-08-11T12:50:32.486Z,0.93
2018-08-11T12:53:02.991Z,0.90
2018-08-11T12:55:33.452Z,1.05
2018-08-11T12:58:03.873Z,1.12
2018-08-11T13:00:34.314Z,1.10
2018-08-11T13:03:04.757Z,1.07
2018-08-11T13:05:35.395Z,1.00
2018-08-11T13:08:05.801Z,1.10
2018-08-11T13:10:36.404Z,0.90
2018-08-11T13:13:06.979Z,1.05
2018-08-11T13:15:37.479Z,1.32
2018-08-11T13:18:08.134Z,1.10
2018-08-11T13:20:38.634Z,1.02
2018-08-11T13:23:09.164Z,1.32
2018-08-11T13:25:39.843Z,1.10
2018-08-11T13:28:10.471Z,1.20
2018-08-11T13:30:40.765Z,1.30
2018-08-11T13:33:11.186Z,1.17
2018-08-11T13:35:41.752Z,1.10
2018-08-11T13:38:12.078Z,1.17
2018-08-11T13:40:42.775Z,1.20
2018-08-11T13:43:13.295Z,0.95
2018-08-11T13:45:43.874Z,1.20
2018-08-11T13:48:14.118Z,1.20
2018-08-11T13:50:44.471Z,1.12
2018-08-11T13:53:15.259Z,1.20
2018-08-11T13:55:45.649Z,1.20
2018-08-11T13:58:16.416Z,1.10
2018-08-11T14:00:47.158Z,1.10
2018-08-11T14:03:17.782Z,1.22
2018-08-11T14:05:48.543Z,1.37
2018-08-11T14:08:18.968Z,1.00
2018-08-11T14:10:49.833Z,1.00
2018-08-11T14:13:20.708Z,1.20
2018-08-11T14:15:51.504Z,1.20
2018-08-11T14:18:22.269Z,1.20
2018-08-11T14:20:52.793Z,1.17
2018-08-11T14:23:23.172Z,1.17
2018-08-11T14:25:53.586Z,1.10
2018-08-11T14:28:23.953Z,1.00
2018-08-11T14:30:54.666Z,1.30
2018-08-11T14:33:25.058Z,1.40
2018-08-11T14:35:55.710Z,1.32
2018-08-11T14:38:26.013Z,1.10
2018-08-11T14:40:56.507Z,1.32
2018-08-11T14:43:26.873Z,1.10
2018-08-11T14:45:57.131Z,1.20
2018-08-11T14:48:27.427Z,1.17
2018-08-11T14:50:57.808Z,1.20
2018-08-11T14:53:28.193Z,1.27
2018-08-11T14:55:58.693Z,1.40
2018-08-11T14:58:29.286Z,1.20
2018-08-11T15:00:59.643Z,1.27
2018-08-11T15:03:30.264Z,1.20
2018-08-11T15:06:00.658Z,1.32
2018-08-11T15:08:31.680Z,1.30
2018-08-11T15:11:02.164Z,1.15
2018-08-11T15:13:32.606Z,1.32
2018-08-11T15:16:03.004Z,1.20
2018-08-11T15:18:37.082Z,1.40
2018-08-11T15:21:08.379Z,1.10
2018-08-11T15:23:39.044Z,1.20
2018-08-11T15:26:09.437Z,1.20
2018-08-11T15:28:41.262Z,1.12
2018-08-11T15:31:11.754Z,1.17
2018-08-11T15:33:42.288Z,1.13
2018-08-11T15:36:12.760Z,1.30
2018-08-11T15:38:43.241Z,1.30
2018-08-11T15:41:13.828Z,1.30
2018-08-11T15:43:45.505Z,1.10
2018-08-11T15:46:16.008Z,1.40
2018-08-11T15:48:46.539Z,1.50
2018-08-11T15:51:17.038Z,1.47
2018-08-11T15:53:47.740Z,1.30
2018-08-11T15:56:18.751Z,1.30
2018-08-11T15:58:49.252Z,1.43
2018-08-11T16:01:19.901Z,1.27
2018-08-11T16:03:50.546Z,1.10
2018-08-11T16:06:21.564Z,1.43
2018-08-11T16:08:52.135Z,1.30
2018-08-11T16:11:22.565Z,1.20
2018-08-11T16:13:52.815Z,1.33
2018-08-11T16:16:23.137Z,1.10
2018-08-11T16:18:53.796Z,1.50
2018-08-11T16:21:24.308Z,1.33
2018-08-11T16:23:54.712Z,1.30
2018-08-11T16:26:25.305Z,1.40
2018-08-11T16:28:55.859Z,1.00
2018-08-11T16:31:26.226Z,1.17
2018-08-11T16:33:56.600Z,1.37
2018-08-11T16:36:26.938Z,1.30
2018-08-11T16:38:57.543Z,1.40
2018-08-11T16:41:27.797Z,1.20
2018-08-11T16:43:58.350Z,1.33
2018-08-11T16:46:28.807Z,1.63
2018-08-11T16:48:59.333Z,1.43
2018-08-11T16:51:29.828Z,1.57
2018-08-11T16:54:00.757Z,1.30
2018-08-11T16:56:31.141Z,1.10
2018-08-11T16:59:01.431Z,1.30
2018-08-11T17:01:31.997Z,1.50
2018-08-11T17:04:02.492Z,2.10
2018-08-11T17:06:33.001Z,1.90
2018-08-11T17:09:03.443Z,1.20
2018-08-11T17:11:33.739Z,1.47
2018-08-11T17:14:04.173Z,1.20
2018-08-11T17:16:34.736Z,1.13
2018-08-11T17:19:05.064Z,1.43
2018-08-11T17:21:35.258Z,1.30
2018-08-11T17:24:05.756Z,1.30
2018-08-11T17:26:36.280Z,1.40
2018-08-11T17:29:06.624Z,1.40
2018-08-11T17:31:37.067Z,1.50
2018-08-11T17:34:07.623Z,1.20
2018-08-11T17:36:38.151Z,1.12
2018-08-11T17:39:10.449Z,1.20
2018-08-11T17:41:41.040Z,1.10
2018-08-11T17:44:11.846Z,1.10
2018-08-11T17:46:42.335Z,1.30
2018-08-11T17:49:12.636Z,1.10
2018-08-11T17:51:43.320Z,1.13
2018-08-11T17:54:13.815Z,1.30
2018-08-11T17:56:44.405Z,1.27
2018-08-11T17:59:14.662Z,1.25
2018-08-11T18:01:45.280Z,1.40
2018-08-11T18:04:15.501Z,1.20
2018-08-11T18:06:46.545Z,1.12
2018-08-11T18:09:16.979Z,1.20
2018-08-11T18:11:47.998Z,1.20
2018-08-11T18:14:18.545Z,1.10
2018-08-11T18:16:49.189Z,1.50
2018-08-11T18:19:19.660Z,1.17
2018-08-11T18:21:50.342Z,1.50
2018-08-11T18:24:20.926Z,1.70
2018-08-11T18:26:51.382Z,1.30
2018-08-11T18:29:21.923Z,1.50
2018-08-11T18:31:52.533Z,1.23
2018-08-11T18:34:22.836Z,1.30
2018-08-11T18:36:53.356Z,1.47
2018-08-11T18:39:23.874Z,1.00
2018-08-11T18:41:54.522Z,1.10
2018-08-11T18:44:24.967Z,1.13
2018-08-11T18:46:55.641Z,1.47
2018-08-11T18:49:25.985Z,1.50
2018-08-11T18:51:56.483Z,1.83
2018-08-11T18:54:26.815Z,1.17
2018-08-11T18:56:57.423Z,1.37
2018-08-11T18:59:27.809Z,1.40
2018-08-11T19:01:58.128Z,1.50
2018-08-11T19:04:28.703Z,1.50
2018-08-11T19:06:59.050Z,1.60
2018-08-11T19:09:29.648Z,1.40
2018-08-11T19:11:59.989Z,1.60
2018-08-11T19:14:30.421Z,1.47
2018-08-11T19:17:00.963Z,1.70
2018-08-11T19:19:31.441Z,1.90
2018-08-11T19:22:01.870Z,1.40
2018-08-11T19:24:32.390Z,1.70
2018-08-11T19:27:02.820Z,2.03
2018-08-11T19:29:33.604Z,2.10
2018-08-11T19:32:03.989Z,2.30
2018-08-11T19:34:34.406Z,2.20
2018-08-11T19:37:04.954Z,2.00
2018-08-11T19:39:35.741Z,2.67
2018-08-11T19:42:06.323Z,2.70
2018-08-11T19:44:37.009Z,1.97
2018-08-11T19:47:07.589Z,2.00
2018-08-11T19:49:37.814Z,2.20
2018-08-11T19:52:08.269Z,2.03
2018-08-11T19:54:38.795Z,2.50
2018-08-11T19:57:09.418Z,5.77
2018-08-11T19:59:40.092Z,3.23
2018-08-11T20:02:10.950Z,4.37
2018-08-11T20:04:41.625Z,3.30
2018-08-11T20:07:12.345Z,2.67
2018-08-11T20:09:43.102Z,3.80
2018-08-11T20:12:13.475Z,3.60
2018-08-11T20:14:43.749Z,2.10
2018-08-11T20:17:13.951Z,3.10
2018-08-11T20:19:44.524Z,2.87
2018-08-11T20:22:18.946Z,2.00
2018-08-11T20:24:50.024Z,2.27
2018-08-11T20:27:20.514Z,2.60
2018-08-11T20:29:51.201Z,2.83
2018-08-11T20:32:21.823Z,2.60
2018-08-11T20:34:52.282Z,2.70
2018-08-11T20:37:22.573Z,2.50
2018-08-11T20:39:53.199Z,3.60
2018-08-11T20:42:23.882Z,2.60
2018-08-11T20:44:54.176Z,2.80
2018-08-11T20:47:24.748Z,2.30
2018-08-11T20:49:55.394Z,2.47
2018-08-11T20:52:25.872Z,2.10
2018-08-11T20:54:56.789Z,2.00
2018-08-11T20:57:27.243Z,2.10
2018-08-11T20:59:57.536Z,2.00
2018-08-11T21:02:27.909Z,2.03
2018-08-11T21:04:58.254Z,1.60
2018-08-11T21:07:28.559Z,1.90
2018-08-11T21:09:59.005Z,1.90
2018-08-11T21:12:29.450Z,1.70
2018-08-11T21:14:59.821Z,1.90
2018-08-11T21:17:30.648Z,2.00
2018-08-11T21:20:01.002Z,2.20
2018-08-11T21:22:31.548Z,1.70
2018-08-11T21:25:02.210Z,2.00
2018-08-11T21:27:32.681Z,1.80
2018-08-11T21:30:03.189Z,1.90
2018-08-11T21:32:33.507Z,1.97
2018-08-11T21:35:03.913Z,2.00
2018-08-11T21:37:34.533Z,2.80
2018-08-11T21:40:06.136Z,2.67
2018-08-11T21:42:36.391Z,2.40
2018-08-11T21:45:07.769Z,2.37
2018-08-11T21:47:38.448Z,2.00
2018-08-11T21:50:09.769Z,2.10
2018-08-11T21:52:40.395Z,2.10
2018-08-11T21:55:10.874Z,2.07
2018-08-11T21:57:41.344Z,1.97
2018-08-11T22:00:32.540Z,2.00
2018-08-11T22:03:03.155Z,2.20
2018-08-11T22:05:33.552Z,2.00
2018-08-11T22:08:04.209Z,1.90
2018-08-11T22:10:34.877Z,1.90
2018-08-11T22:13:05.479Z,1.90
2018-08-11T22:15:36.055Z,1.80
2018-08-11T22:18:06.543Z,2.10
2018-08-11T22:20:37.171Z,1.90
2018-08-11T22:23:07.842Z,2.10
2018-08-11T22:25:38.219Z,2.10
2018-08-11T22:28:08.614Z,1.80
2018-08-11T22:30:39.117Z,2.00
2018-08-11T22:33:09.363Z,2.00
2018-08-11T22:35:39.942Z,1.97
2018-08-11T22:38:10.628Z,1.77
2018-08-11T22:40:41.254Z,2.30
2018-08-11T22:43:11.625Z,1.97
2018-08-11T22:45:42.018Z,2.00
2018-08-11T22:48:13.273Z,1.77
2018-08-11T22:50:43.695Z,2.10
2018-08-11T22:53:14.035Z,1.80
2018-08-11T22:55:44.473Z,2.50
2018-08-11T22:58:14.865Z,2.07
2018-08-11T23:00:45.345Z,1.87
2018-08-11T23:03:15.932Z,2.00
2018-08-11T23:05:46.425Z,2.10
2018-08-11T23:08:16.964Z,2.00
2018-08-11T23:10:47.679Z,2.53
2018-08-11T23:13:18.219Z,2.30
2018-08-11T23:15:48.858Z,2.30
2018-08-11T23:18:19.228Z,2.60
2018-08-11T23:20:49.773Z,2.13
2018-08-11T23:23:20.154Z,2.00
2018-08-11T23:25:50.921Z,2.30
2018-08-11T23:28:21.261Z,2.10
2018-08-11T23:30:51.887Z,1.93
2018-08-11T23:33:22.531Z,2.30
2018-08-11T23:35:53.208Z,2.10
2018-08-11T23:38:23.781Z,2.20
2018-08-11T23:40:54.400Z,2.10
2018-08-11T23:43:24.975Z,2.13
2018-08-11T23:45:55.825Z,1.97
2018-08-11T23:48:26.304Z,2.30
2018-08-11T23:50:56.648Z,1.97
2018-08-11T23:53:27.235Z,1.83
2018-08-11T23:55:57.608Z,2.17
2018-08-11T23:58:28.067Z,2.10
